Time;durP1;ratioP1;P1;durP2;ratioP2;P2;SDS_P1;SDS_P2;PMS_P1;PMS_P2;Temp;Humidity;BMP_temperature;BMP_pressure;BME280_temperature;BME280_humidity;BME280_pressure;Samples;Min_cycle;Max_cycle;Signal;HPM_P1;HPM_P2
2023/06/01 00:02:08;;;;;;;2.67;1.83;;;19.10;74.40;;;;;;5028207;28;20205;-66
2023/06/01 00:04:40;;;;;;;3.40;1.90;;;19.00;73.90;;;;;;5010681;28;20226;-66
2023/06/01 00:07:06;;;;;;;3.40;1.90;;;19.00;74.10;;;;;;5007759;28;20182;-66
2023/06/01 00:09:36;;;;;;;3.17;1.77;;;18.90;74.40;;;;;;5011150;28;20907;-65
2023/06/01 00:12:03;;;;;;;2.97;1.85;;;18.80;74.60;;;;;;5010948;28;20180;-66
2023/06/01 00:14:29;;;;;;;2.50;1.70;;;18.80;75.10;;;;;;5013226;28;20294;-66
2023/06/01 00:16:56;;;;;;;2.28;1.65;;;18.80;75.40;;;;;;5012415;28;20274;-65
2023/06/01 00:19:22;;;;;;;2.90;2.00;;;18.80;75.70;;;;;;5011046;28;20179;-65
2023/06/01 00:21:50;;;;;;;2.92;2.05;;;18.70;76.60;;;;;;5009778;28;20268;-66
2023/06/01 00:24:18;;;;;;;2.75;1.85;;;18.70;76.00;;;;;;5012092;28;20214;-66
2023/06/01 00:26:46;;;;;;;3.30;1.70;;;18.70;76.50;;;;;;5008839;28;20182;-66
2023/06/01 00:29:14;;;;;;;3.75;2.05;;;18.60;76.00;;;;;;5031366;28;20186;-66
2023/06/01 00:31:39;;;;;;;4.70;2.00;;;18.60;76.50;;;;;;5014721;28;20209;-65
2023/06/01 00:34:07;;;;;;;4.63;2.00;;;18.60;76.80;;;;;;5015660;28;20199;-66
2023/06/01 00:36:32;;;;;;;2.72;2.10;;;18.50;77.20;;;;;;5031264;28;20170;-65
2023/06/01 00:39:02;;;;;;;3.85;1.95;;;18.50;77.40;;;;;;5016411;28;20190;-66
2023/06/01 00:41:32;;;;;;;3.28;2.13;;;18.50;77.70;;;;;;5016016;28;20170;-65
2023/06/01 00:44:00;;;;;;;4.45;2.00;;;18.40;78.70;;;;;;5012692;28;20270;-64
2023/06/01 00:46:30;;;;;;;3.58;2.05;;;18.40;78.90;;;;;;5014133;28;21019;-66
2023/06/01 00:48:56;;;;;;;2.63;1.80;;;18.40;79.70;;;;;;5030219;28;20201;-65
2023/06/01 00:51:24;;;;;;;2.60;1.83;;;18.30;78.70;;;;;;5013034;28;20199;-65
2023/06/01 00:53:50;;;;;;;4.55;2.03;;;18.30;80.10;;;;;;5012519;28;20176;-65
2023/06/01 00:56:17;;;;;;;2.55;1.73;;;18.30;79.30;;;;;;5016363;28;20236;-65
2023/06/01 00:58:46;;;;;;;2.67;1.83;;;18.20;79.70;;;;;;5014852;28;20191;-63
2023/06/01 01:01:22;;;;;;;3.17;1.98;;;18.20;79.80;;;;;;5015185;28;20198;-66
2023/06/01 01:03:57;;;;;;;3.70;1.67;;;18.10;80.00;;;;;;5012108;28;20175;-65
2023/06/01 01:06:56;;;;;;;4.68;1.80;;;18.10;80.10;;;;;;5016216;28;20194;-65
2023/06/01 01:09:57;;;;;;;2.95;1.60;;;18.10;82.30;;;;;;5026198;28;20190;-65
2023/06/01 01:12:25;;;;;;;3.15;2.10;;;18.00;83.10;;;;;;4966163;28;20229;-65
2023/06/01 01:15:01;;;;;;;3.17;1.88;;;17.90;80.70;;;;;;5012544;28;20257;-65
2023/06/01 01:17:51;;;;;;;3.30;2.03;;;17.90;82.20;;;;;;5031195;28;20174;-66
2023/06/01 01:20:31;;;;;;;3.88;1.88;;;17.90;83.80;;;;;;5014050;28;20204;-65
2023/06/01 01:23:02;;;;;;;3.53;1.85;;;17.80;83.10;;;;;;5014869;28;20183;-65
2023/06/01 01:25:49;;;;;;;3.00;1.73;;;17.80;82.10;;;;;;5029148;28;20191;-64
2023/06/01 01:28:44;;;;;;;3.15;1.77;;;17.70;83.10;;;;;;5022230;28;20198;-65
2023/06/01 01:31:13;;;;;;;3.35;2.00;;;17.70;85.40;;;;;;5011730;28;20187;-65
2023/06/01 01:33:41;;;;;;;3.30;2.20;;;17.60;83.50;;;;;;5019918;28;20195;-65
2023/06/01 01:36:12;;;;;;;3.00;2.10;;;17.50;83.60;;;;;;5015534;28;20213;-64
2023/06/01 01:38:38;;;;;;;4.63;2.00;;;17.50;84.70;;;;;;5014290;28;20247;-66
2023/06/01 01:41:06;;;;;;;2.85;1.85;;;17.50;84.10;;;;;;5014384;28;20274;-65
2023/06/01 01:43:36;;;;;;;2.80;1.80;;;17.40;84.40;;;;;;5022682;28;20182;-64
2023/06/01 01:46:21;;;;;;;3.13;2.05;;;17.40;85.80;;;;;;5011911;28;20182;-64
2023/06/01 01:49:17;;;;;;;2.42;1.80;;;17.40;85.60;;;;;;5018464;28;20189;-66
2023/06/01 01:52:17;;;;;;;2.65;1.80;;;17.40;87.50;;;;;;5013002;28;20190;-65
2023/06/01 01:54:46;;;;;;;2.72;1.83;;;17.30;87.90;;;;;;5012429;28;20206;-65
2023/06/01 01:57:14;;;;;;;2.83;1.73;;;17.30;85.90;;;;;;5028321;28;20232;-65
2023/06/01 01:59:42;;;;;;;4.07;2.00;;;17.30;86.20;;;;;;5031014;28;20170;-65
2023/06/01 02:02:10;;;;;;;3.13;2.00;;;17.30;86.30;;;;;;5015056;28;20241;-65
2023/06/01 02:04:43;;;;;;;3.05;2.00;;;17.20;86.00;;;;;;5015489;28;20190;-65
2023/06/01 02:07:14;;;;;;;2.97;1.50;;;17.20;87.70;;;;;;5027139;28;20209;-64
2023/06/01 02:09:40;;;;;;;2.60;1.70;;;17.20;87.30;;;;;;5013180;28;20191;-66
2023/06/01 02:12:07;;;;;;;3.58;1.92;;;17.20;87.00;;;;;;5015556;28;20179;-65
2023/06/01 02:14:35;;;;;;;2.13;1.60;;;17.20;87.20;;;;;;5013071;28;20215;-64
2023/06/01 02:17:03;;;;;;;4.35;1.83;;;17.10;87.30;;;;;;5012229;28;20269;-65
2023/06/01 02:19:29;;;;;;;2.30;1.77;;;17.10;88.20;;;;;;5011411;28;20240;-65
2023/06/01 02:21:57;;;;;;;2.95;1.67;;;17.10;87.90;;;;;;5013826;28;21113;-65
2023/06/01 02:24:23;;;;;;;3.83;1.98;;;17.10;89.00;;;;;;5009367;28;20258;-65
2023/06/01 02:26:55;;;;;;;2.67;1.80;;;17.10;88.70;;;;;;5014606;28;20265;-65
2023/06/01 02:29:22;;;;;;;3.00;1.70;;;17.00;89.40;;;;;;5009336;28;20257;-65
2023/06/01 02:31:50;;;;;;;2.25;1.65;;;17.00;89.00;;;;;;5028099;28;20182;-64
2023/06/01 02:34:16;;;;;;;2.83;1.90;;;17.00;89.10;;;;;;5014500;28;20203;-66
2023/06/01 02:36:42;;;;;;;3.20;1.70;;;16.90;89.20;;;;;;5013002;28;20181;-65
2023/06/01 02:39:10;;;;;;;2.00;1.67;;;16.90;89.30;;;;;;5011365;28;20181;-62
2023/06/01 02:41:36;;;;;;;2.75;1.90;;;16.90;89.50;;;;;;5017482;28;20203;-65
2023/06/01 02:44:04;;;;;;;2.08;1.70;;;16.80;89.70;;;;;;5011079;28;20213;-65
2023/06/01 02:46:29;;;;;;;4.18;2.10;;;16.90;90.10;;;;;;5014501;28;20195;-65
2023/06/01 02:48:55;;;;;;;3.08;1.80;;;16.80;90.20;;;;;;5013892;28;20256;-65
2023/06/01 02:51:23;;;;;;;3.00;1.80;;;16.80;90.30;;;;;;5011585;28;20182;-65
2023/06/01 02:53:49;;;;;;;2.50;1.85;;;16.70;90.60;;;;;;5012047;28;20186;-63
2023/06/01 02:56:19;;;;;;;3.15;2.00;;;16.70;90.40;;;;;;5012104;28;20190;-65
2023/06/01 02:58:50;;;;;;;2.65;2.17;;;16.70;90.80;;;;;;5013656;28;20183;-65
2023/06/01 03:01:16;;;;;;;4.28;2.67;;;16.60;90.80;;;;;;5011796;28;20205;-62
2023/06/01 03:03:47;;;;;;;4.78;2.33;;;16.60;90.70;;;;;;5012494;28;20182;-65
2023/06/01 03:06:17;;;;;;;2.85;1.95;;;16.60;90.90;;;;;;5015373;28;20190;-65
2023/06/01 03:08:43;;;;;;;3.38;2.10;;;16.50;90.90;;;;;;5013298;28;20202;-65
2023/06/01 03:11:08;;;;;;;2.90;1.83;;;16.50;90.90;;;;;;5014446;28;20205;-65
2023/06/01 03:13:36;;;;;;;3.22;1.88;;;16.40;91.00;;;;;;5014978;28;20175;-65
2023/06/01 03:16:02;;;;;;;3.67;2.00;;;16.40;91.30;;;;;;5013007;28;20225;-65
2023/06/01 03:18:30;;;;;;;4.95;1.85;;;16.30;91.20;;;;;;5026706;28;20183;-65
2023/06/01 03:20:56;;;;;;;2.72;1.92;;;16.30;91.70;;;;;;5014034;28;20266;-61
2023/06/01 03:23:22;;;;;;;2.55;1.90;;;16.30;91.50;;;;;;5011326;28;20246;-65
2023/06/01 03:25:53;;;;;;;2.33;1.70;;;16.20;91.70;;;;;;5010944;28;20277;-67
2023/06/01 03:28:19;;;;;;;3.42;2.00;;;16.20;91.90;;;;;;5013888;28;20182;-65
2023/06/01 03:30:45;;;;;;;2.30;1.75;;;16.10;91.90;;;;;;5025564;28;20175;-67
2023/06/01 03:33:13;;;;;;;3.10;2.10;;;16.10;92.00;;;;;;5012059;28;20176;-66
2023/06/01 03:35:41;;;;;;;3.47;1.83;;;16.10;93.00;;;;;;5011546;28;20215;-65
2023/06/01 03:38:09;;;;;;;2.40;2.00;;;16.00;92.40;;;;;;5013693;28;20191;-65
2023/06/01 03:40:35;;;;;;;2.45;1.83;;;16.00;92.80;;;;;;5011836;28;20202;-65
2023/06/01 03:43:02;;;;;;;2.85;1.98;;;15.90;92.60;;;;;;5013815;28;20198;-64
2023/06/01 03:45:30;;;;;;;3.60;2.20;;;15.90;92.80;;;;;;5010770;28;20217;-64
2023/06/01 03:47:55;;;;;;;2.97;1.95;;;15.80;93.00;;;;;;5026122;28;20237;-65
2023/06/01 03:50:21;;;;;;;4.85;2.50;;;15.80;93.10;;;;;;5012436;28;20186;-65
2023/06/01 03:52:47;;;;;;;3.55;2.17;;;15.70;93.30;;;;;;5012069;28;20197;-65
2023/06/01 03:55:13;;;;;;;2.58;2.15;;;15.70;93.40;;;;;;5010053;28;20206;-65
2023/06/01 03:57:41;;;;;;;2.72;1.90;;;15.70;93.70;;;;;;5010481;28;20217;-65
2023/06/01 04:00:20;;;;;;;4.20;2.53;;;15.60;93.60;;;;;;5011229;28;20175;-64
2023/06/01 04:02:49;;;;;;;4.85;2.70;;;15.60;94.00;;;;;;5009861;28;20217;-65
2023/06/01 04:05:17;;;;;;;4.88;2.60;;;15.60;94.10;;;;;;5010960;28;20178;-65
2023/06/01 04:07:51;;;;;;;3.08;2.47;;;15.60;94.10;;;;;;5011339;28;20190;-66
2023/06/01 04:10:17;;;;;;;3.30;2.60;;;15.60;94.90;;;;;;5012880;28;20240;-65
2023/06/01 04:12:44;;;;;;;3.60;2.50;;;15.50;94.50;;;;;;5010963;28;20179;-65
2023/06/01 04:15:11;;;;;;;4.32;2.67;;;15.50;94.90;;;;;;5010317;28;20302;-65
2023/06/01 04:17:38;;;;;;;3.95;2.78;;;15.40;95.20;;;;;;5011598;28;20190;-65
2023/06/01 04:20:06;;;;;;;4.85;3.00;;;15.40;95.10;;;;;;5009029;28;20197;-64
2023/06/01 04:22:34;;;;;;;6.15;2.58;;;15.40;95.30;;;;;;5011029;28;20195;-65
2023/06/01 04:25:05;;;;;;;4.95;2.90;;;15.40;95.50;;;;;;5011435;28;20176;-65
2023/06/01 04:27:36;;;;;;;3.65;2.60;;;15.40;95.90;;;;;;5011479;28;20171;-66
2023/06/01 04:30:07;;;;;;;4.07;2.50;;;15.40;95.70;;;;;;5012249;28;20210;-65
2023/06/01 04:32:37;;;;;;;3.53;2.55;;;15.30;95.90;;;;;;5009783;28;20193;-66
2023/06/01 04:35:10;;;;;;;4.07;2.75;;;15.30;96.20;;;;;;5012512;28;20198;-65
2023/06/01 04:37:40;;;;;;;3.05;2.47;;;15.30;96.70;;;;;;5012631;28;20187;-66
2023/06/01 04:40:09;;;;;;;5.97;2.40;;;15.30;97.00;;;;;;5011297;28;21211;-66
2023/06/01 04:42:42;;;;;;;3.45;2.22;;;15.30;96.90;;;;;;5009955;28;20198;-65
2023/06/01 04:45:13;;;;;;;5.32;2.75;;;15.40;97.20;;;;;;5027479;28;20233;-66
2023/06/01 04:47:44;;;;;;;3.70;2.30;;;15.40;97.50;;;;;;5009823;28;20187;-66
2023/06/01 04:50:11;;;;;;;4.03;2.60;;;15.40;97.20;;;;;;5013148;28;20187;-65
2023/06/01 04:52:37;;;;;;;4.70;2.75;;;15.40;97.50;;;;;;5011288;28;20218;-65
2023/06/01 04:55:04;;;;;;;4.38;2.55;;;15.50;97.70;;;;;;5011582;28;20222;-66
2023/06/01 04:57:30;;;;;;;4.50;2.83;;;15.50;97.90;;;;;;5012542;28;20210;-65
2023/06/01 04:59:56;;;;;;;4.93;2.50;;;15.60;98.30;;;;;;5009404;28;20209;-67
2023/06/01 05:02:24;;;;;;;4.10;2.20;;;15.70;98.50;;;;;;5010224;28;20202;-66
2023/06/01 05:04:50;;;;;;;4.03;2.40;;;15.70;98.50;;;;;;5006704;28;20179;-67
2023/06/01 05:07:16;;;;;;;8.75;2.90;;;15.80;99.10;;;;;;5013100;28;20198;-66
2023/06/01 05:09:41;;;;;;;4.85;3.22;;;15.90;99.10;;;;;;5013615;28;20236;-67
2023/06/01 05:12:07;;;;;;;6.88;3.05;;;16.00;98.90;;;;;;5012574;28;20190;-67
2023/06/01 05:14:38;;;;;;;6.53;2.80;;;16.00;99.20;;;;;;5014294;28;20214;-67
2023/06/01 05:17:08;;;;;;;4.07;2.80;;;16.00;99.60;;;;;;5012861;28;20210;-65
2023/06/01 05:19:36;;;;;;;3.28;2.67;;;16.00;99.70;;;;;;5025415;28;20269;-63
2023/06/01 05:22:04;;;;;;;4.72;3.05;;;16.10;99.90;;;;;;5017711;28;20171;-65
2023/06/01 05:24:30;;;;;;;3.22;2.80;;;16.10;99.80;;;;;;5015864;28;20179;-66
2023/06/01 05:27:00;;;;;;;4.30;2.90;;;16.10;99.90;;;;;;5016541;28;20199;-67
2023/06/01 05:29:25;;;;;;;4.95;3.30;;;16.20;99.90;;;;;;5023131;28;20186;-67
2023/06/01 05:31:51;;;;;;;7.50;3.30;;;16.30;99.90;;;;;;5017053;28;20185;-65
2023/06/01 05:34:17;;;;;;;6.60;3.40;;;16.30;99.90;;;;;;5005550;28;20273;-67
2023/06/01 05:36:43;;;;;;;4.30;3.10;;;16.40;99.90;;;;;;5012703;28;20182;-68
2023/06/01 05:39:11;;;;;;;4.85;3.17;;;16.40;99.90;;;;;;5014530;28;20652;-66
2023/06/01 05:41:36;;;;;;;6.05;3.10;;;16.50;99.90;;;;;;5017288;28;20175;-67
2023/06/01 05:44:02;;;;;;;5.07;3.55;;;16.50;99.90;;;;;;5007884;28;20180;-67
2023/06/01 05:46:28;;;;;;;5.45;3.20;;;16.50;99.90;;;;;;5036208;28;20181;-66
2023/06/01 05:48:55;;;;;;;5.60;3.50;;;16.60;99.90;;;;;;5035051;28;20178;-65
2023/06/01 05:51:21;;;;;;;4.50;3.28;;;16.60;99.90;;;;;;5017014;28;20190;-65
2023/06/01 05:53:47;;;;;;;6.80;3.78;;;16.60;99.90;;;;;;5015104;28;20198;-67
2023/06/01 05:56:16;;;;;;;5.70;3.33;;;16.70;99.90;;;;;;5029272;28;20270;-66
2023/06/01 05:58:42;;;;;;;5.70;3.35;;;16.70;99.90;;;;;;5016867;28;20171;-67
2023/06/01 06:01:09;;;;;;;4.53;3.28;;;16.70;99.90;;;;;;5015845;28;20270;-68
2023/06/01 06:03:34;;;;;;;10.07;4.15;;;16.70;99.90;;;;;;5016105;28;20203;-67
2023/06/01 06:06:00;;;;;;;6.00;3.42;;;16.80;99.90;;;;;;5016420;28;20225;-68
2023/06/01 06:08:29;;;;;;;7.45;3.72;;;16.80;99.90;;;;;;5015882;28;20179;-67
2023/06/01 06:10:55;;;;;;;7.00;4.10;;;16.80;99.90;;;;;;5016757;28;20194;-69
2023/06/01 06:13:20;;;;;;;5.22;3.78;;;16.80;99.90;;;;;;5005657;28;20202;-70
2023/06/01 06:15:48;;;;;;;5.63;3.88;;;16.90;99.90;;;;;;5012264;28;20202;-69
2023/06/01 06:18:14;;;;;;;5.00;3.80;;;16.90;99.90;;;;;;5018411;28;20182;-70
2023/06/01 06:20:40;;;;;;;7.68;3.88;;;16.90;99.90;;;;;;5016359;28;20190;-69
2023/06/01 06:23:05;;;;;;;5.90;4.20;;;17.00;99.90;;;;;;5016284;28;20209;-68
2023/06/01 06:25:31;;;;;;;7.13;4.60;;;17.00;99.90;;;;;;5025026;28;20255;-70
2023/06/01 06:27:59;;;;;;;5.45;4.18;;;17.00;99.90;;;;;;5013280;28;20202;-70
2023/06/01 06:30:25;;;;;;;9.20;4.68;;;17.10;99.90;;;;;;5032109;28;20365;-69
2023/06/01 06:32:55;;;;;;;6.43;4.05;;;17.10;99.90;;;;;;5015801;28;20281;-69
2023/06/01 06:35:21;;;;;;;6.45;4.38;;;17.10;99.90;;;;;;5012704;28;20211;-70
2023/06/01 06:37:46;;;;;;;10.00;4.72;;;17.20;99.90;;;;;;5017389;28;20185;-69
2023/06/01 06:40:12;;;;;;;7.30;4.78;;;17.20;99.90;;;;;;5010156;28;20246;-69
2023/06/01 06:42:38;;;;;;;7.70;4.88;;;17.20;99.90;;;;;;5003340;28;20195;-70
2023/06/01 06:45:05;;;;;;;12.52;5.20;;;17.20;99.90;;;;;;5002135;28;20244;-71
2023/06/01 06:47:31;;;;;;;7.90;4.97;;;17.20;99.90;;;;;;5016467;28;20236;-70
2023/06/01 06:49:58;;;;;;;6.50;4.80;;;17.30;99.90;;;;;;5020982;28;20199;-70
2023/06/01 06:52:24;;;;;;;9.40;5.97;;;17.40;99.90;;;;;;5016017;28;20454;-70
2023/06/01 06:54:50;;;;;;;8.68;5.35;;;17.40;99.90;;;;;;5015774;28;20576;-70
2023/06/01 06:57:18;;;;;;;7.40;5.18;;;17.50;99.90;;;;;;5017689;28;20199;-67
2023/06/01 06:59:43;;;;;;;7.57;5.57;;;17.50;99.90;;;;;;5018933;28;20182;-70
2023/06/01 07:02:11;;;;;;;8.50;6.30;;;17.50;99.90;;;;;;5015287;28;20205;-69
2023/06/01 07:04:37;;;;;;;10.68;5.82;;;17.50;99.90;;;;;;5015567;28;20205;-69
2023/06/01 07:07:05;;;;;;;8.00;5.55;;;17.50;99.90;;;;;;5012569;28;20179;-69
2023/06/01 07:09:31;;;;;;;8.10;5.55;;;17.60;99.90;;;;;;5012661;28;20222;-69
2023/06/01 07:11:57;;;;;;;11.38;5.85;;;17.60;99.90;;;;;;5024714;28;20205;-69
2023/06/01 07:14:23;;;;;;;9.98;5.97;;;17.60;99.90;;;;;;5015488;28;20171;-69
2023/06/01 07:16:50;;;;;;;10.82;6.88;;;17.70;99.90;;;;;;5015641;28;20175;-69
2023/06/01 07:19:19;;;;;;;8.55;6.93;;;17.70;99.90;;;;;;5014932;28;20179;-67
2023/06/01 07:21:45;;;;;;;8.48;6.00;;;17.80;99.90;;;;;;5015721;28;20174;-69
2023/06/01 07:24:10;;;;;;;10.75;7.82;;;17.80;99.90;;;;;;5015042;28;20174;-69
2023/06/01 07:26:36;;;;;;;10.45;7.45;;;17.90;99.90;;;;;;5015321;28;20190;-69
2023/06/01 07:29:02;;;;;;;9.77;7.07;;;17.90;99.90;;;;;;5015363;28;20179;-68
2023/06/01 07:31:28;;;;;;;11.70;8.07;;;17.90;99.90;;;;;;5015170;28;20178;-68
2023/06/01 07:33:57;;;;;;;11.35;7.97;;;17.90;99.90;;;;;;5012231;28;20186;-68
2023/06/01 07:36:26;;;;;;;11.55;7.78;;;18.00;99.90;;;;;;5027749;28;20191;-69
2023/06/01 07:38:53;;;;;;;11.23;8.30;;;18.00;99.90;;;;;;5014527;28;20171;-69
2023/06/01 07:41:21;;;;;;;13.15;8.43;;;18.10;99.90;;;;;;5011746;28;20171;-69
2023/06/01 07:43:47;;;;;;;12.60;8.50;;;18.10;99.90;;;;;;4995741;28;20176;-69
2023/06/01 07:46:13;;;;;;;10.82;7.95;;;18.10;99.90;;;;;;5025262;28;20289;-69
2023/06/01 07:48:39;;;;;;;13.43;9.20;;;18.20;99.90;;;;;;5014746;28;20179;-69
2023/06/01 07:51:05;;;;;;;14.88;9.23;;;18.20;99.90;;;;;;5015210;28;20175;-67
2023/06/01 07:53:31;;;;;;;12.20;8.68;;;18.20;99.90;;;;;;5009624;28;20266;-68
2023/06/01 07:55:59;;;;;;;15.02;9.30;;;18.20;99.90;;;;;;5011173;28;20286;-68
2023/06/01 07:58:27;;;;;;;12.27;8.70;;;18.20;99.90;;;;;;5014826;28;20209;-68
2023/06/01 08:00:55;;;;;;;13.90;8.75;;;18.20;99.90;;;;;;5004654;28;20202;-68
2023/06/01 08:03:26;;;;;;;11.40;8.27;;;18.20;99.90;;;;;;5015436;28;20180;-68
2023/06/01 08:05:57;;;;;;;12.68;8.98;;;18.30;99.90;;;;;;5011092;28;20179;-69
2023/06/01 08:08:23;;;;;;;11.20;8.95;;;18.30;99.90;;;;;;5011034;28;20286;-69
2023/06/01 08:10:49;;;;;;;13.35;9.88;;;18.40;99.90;;;;;;5011725;28;20217;-69
2023/06/01 08:13:15;;;;;;;12.52;9.52;;;18.40;99.90;;;;;;5022659;28;20295;-68
2023/06/01 08:15:42;;;;;;;13.18;10.10;;;18.40;99.90;;;;;;5014922;28;20221;-69
2023/06/01 08:18:08;;;;;;;15.30;10.85;;;18.50;99.90;;;;;;5010790;28;20326;-68
2023/06/01 08:20:35;;;;;;;14.88;9.70;;;18.50;99.90;;;;;;4995107;28;20255;-69
2023/06/01 08:23:02;;;;;;;13.60;10.00;;;18.60;99.90;;;;;;5026252;28;20206;-69
2023/06/01 08:25:28;;;;;;;15.88;10.02;;;18.50;99.90;;;;;;5011084;28;20183;-68
2023/06/01 08:27:54;;;;;;;14.07;9.95;;;18.60;99.90;;;;;;4994917;28;20179;-69
2023/06/01 08:30:27;;;;;;;12.07;9.48;;;18.60;99.90;;;;;;5014458;28;20293;-69
2023/06/01 08:32:53;;;;;;;12.48;9.27;;;18.60;99.90;;;;;;5011395;28;20206;-69
2023/06/01 08:35:21;;;;;;;18.73;10.90;;;18.60;99.90;;;;;;5011481;28;20222;-69
2023/06/01 08:37:47;;;;;;;13.30;9.88;;;18.60;99.90;;;;;;5014046;28;20193;-69
2023/06/01 08:40:14;;;;;;;13.85;10.82;;;18.60;99.90;;;;;;5014765;28;20178;-68
2023/06/01 08:42:48;;;;;;;15.88;10.27;;;18.60;99.90;;;;;;5014433;28;20213;-68
2023/06/01 08:45:17;;;;;;;13.25;10.23;;;18.70;99.90;;;;;;5014567;28;20182;-69
2023/06/01 08:47:46;;;;;;;14.68;10.70;;;18.70;99.90;;;;;;5014462;28;20271;-68
2023/06/01 08:50:14;;;;;;;17.17;11.05;;;18.70;99.90;;;;;;5016835;28;20171;-69
2023/06/01 08:52:43;;;;;;;16.30;11.57;;;18.70;99.90;;;;;;5011691;28;20185;-68
2023/06/01 08:55:15;;;;;;;16.48;10.55;;;18.70;99.90;;;;;;5017968;28;20297;-69
2023/06/01 08:57:44;;;;;;;14.18;10.93;;;18.70;99.90;;;;;;5009946;28;20198;-69
2023/06/01 09:00:17;;;;;;;14.43;10.75;;;18.70;99.90;;;;;;5033960;28;20182;-68
2023/06/01 09:02:43;;;;;;;15.30;10.73;;;18.70;99.90;;;;;;5030247;28;20186;-69
2023/06/01 09:05:12;;;;;;;13.32;10.30;;;18.70;99.90;;;;;;5014136;28;20265;-69
2023/06/01 09:07:39;;;;;;;13.70;9.88;;;18.80;99.90;;;;;;5017326;28;20246;-69
2023/06/01 09:10:06;;;;;;;14.10;9.82;;;18.80;99.90;;;;;;5018322;28;20175;-69
2023/06/01 09:12:38;;;;;;;14.80;8.77;;;18.90;99.90;;;;;;5006183;28;20214;-69
2023/06/01 09:15:16;;;;;;;12.10;10.10;;;18.90;99.90;;;;;;5033844;28;20305;-69
2023/06/01 09:17:46;;;;;;;11.25;9.27;;;19.00;99.90;;;;;;5034711;28;20182;-69
2023/06/01 09:20:24;;;;;;;11.73;9.63;;;19.10;99.90;;;;;;5023069;28;20194;-68
2023/06/01 09:22:50;;;;;;;11.95;9.32;;;19.10;99.90;;;;;;5014435;28;20211;-68
2023/06/01 09:25:16;;;;;;;13.35;10.65;;;19.20;99.90;;;;;;5033119;28;20210;-68
2023/06/01 09:27:49;;;;;;;12.80;9.50;;;19.30;99.90;;;;;;5017041;28;20186;-68
2023/06/01 09:30:19;;;;;;;12.00;9.73;;;19.30;99.90;;;;;;5017456;28;20210;-69
2023/06/01 09:32:50;;;;;;;15.50;9.82;;;19.30;99.90;;;;;;5016873;28;20191;-69
2023/06/01 09:35:48;;;;;;;12.02;9.50;;;19.40;99.90;;;;;;5017423;28;20201;-69
2023/06/01 09:38:23;;;;;;;13.63;10.00;;;19.40;99.90;;;;;;4965178;28;20203;-69
2023/06/01 09:41:04;;;;;;;12.02;9.35;;;19.50;99.90;;;;;;5007001;28;20196;-69
2023/06/01 09:43:36;;;;;;;14.30;10.27;;;19.60;99.90;;;;;;5017493;28;20177;-70
2023/06/01 09:46:06;;;;;;;12.30;9.75;;;19.60;99.90;;;;;;5016818;28;20190;-70
2023/06/01 09:48:31;;;;;;;12.27;9.10;;;19.60;99.90;;;;;;5016331;28;20199;-70
2023/06/01 09:51:00;;;;;;;11.07;8.70;;;19.60;99.90;;;;;;4997502;28;20205;-69
2023/06/01 09:53:26;;;;;;;12.02;10.05;;;19.70;99.90;;;;;;5016465;28;20242;-70
2023/06/01 09:55:59;;;;;;;11.15;8.85;;;19.80;99.90;;;;;;5016497;28;20207;-69
2023/06/01 09:58:27;;;;;;;12.18;8.90;;;19.80;99.90;;;;;;5009023;28;20180;-69
2023/06/01 10:00:53;;;;;;;12.23;8.57;;;19.90;99.90;;;;;;5016540;28;20186;-69
2023/06/01 10:03:23;;;;;;;12.13;9.43;;;19.90;99.90;;;;;;5015260;28;20198;-68
2023/06/01 10:05:51;;;;;;;12.82;9.15;;;20.00;99.90;;;;;;5028454;28;20251;-69
2023/06/01 10:08:18;;;;;;;10.52;7.78;;;20.00;99.90;;;;;;5009533;28;20178;-69
2023/06/01 10:10:48;;;;;;;10.25;8.20;;;20.00;99.90;;;;;;5033451;28;20246;-70
2023/06/01 10:13:16;;;;;;;10.95;8.68;;;20.10;99.90;;;;;;5019647;28;20545;-69
2023/06/01 10:15:46;;;;;;;12.75;9.50;;;20.10;99.90;;;;;;5016480;28;20198;-69
2023/06/01 10:18:12;;;;;;;10.10;8.45;;;20.10;99.80;;;;;;5017131;28;20174;-69
2023/06/01 10:20:39;;;;;;;10.60;8.65;;;20.20;99.90;;;;;;5007136;28;20176;-69
2023/06/01 10:23:07;;;;;;;12.38;9.55;;;20.20;99.90;;;;;;5013356;28;20264;-69
2023/06/01 10:25:39;;;;;;;10.43;8.20;;;20.30;99.60;;;;;;5016513;28;20174;-69
2023/06/01 10:28:09;;;;;;;12.85;8.77;;;20.40;99.60;;;;;;5016092;28;20238;-68
2023/06/01 10:30:37;;;;;;;10.43;8.43;;;20.40;99.40;;;;;;5031147;28;20205;-68
2023/06/01 10:33:03;;;;;;;10.95;7.90;;;20.50;99.20;;;;;;5022962;28;20273;-69
2023/06/01 10:35:29;;;;;;;9.85;7.25;;;20.60;99.10;;;;;;5014670;28;20209;-69
2023/06/01 10:38:12;;;;;;;10.38;8.50;;;20.80;99.10;;;;;;5016077;28;20294;-70
2023/06/01 10:40:39;;;;;;;12.68;8.43;;;21.00;98.40;;;;;;5016076;28;20179;-69
2023/06/01 10:43:06;;;;;;;9.40;7.22;;;21.20;98.80;;;;;;5016060;28;20229;-69
2023/06/01 10:45:42;;;;;;;8.40;7.40;;;21.40;98.80;;;;;;5015549;28;20261;-69
2023/06/01 10:48:11;;;;;;;9.93;7.95;;;21.50;97.80;;;;;;5015869;28;20190;-68
2023/06/01 10:50:39;;;;;;;9.18;6.78;;;21.70;98.30;;;;;;5033226;28;20185;-70
2023/06/01 10:53:32;;;;;;;9.43;7.40;;;21.90;98.00;;;;;;5022184;28;20297;-69
2023/06/01 10:56:16;;;;;;;9.57;7.40;;;22.10;95.50;;;;;;5016309;28;20199;-70
2023/06/01 10:58:42;;;;;;;9.43;7.15;;;22.30;97.20;;;;;;5015891;28;20174;-69
2023/06/01 11:01:10;;;;;;;9.50;7.05;;;22.40;97.40;;;;;;5015721;28;20203;-70
2023/06/01 11:03:45;;;;;;;9.57;7.30;;;22.50;97.00;;;;;;5017736;28;20184;-69
2023/06/01 11:06:35;;;;;;;9.23;5.85;;;22.70;96.20;;;;;;5020738;28;20260;-69
2023/06/01 11:09:06;;;;;;;9.98;6.85;;;22.80;95.80;;;;;;5015221;28;20201;-69
2023/06/01 11:11:55;;;;;;;8.43;6.60;;;23.00;96.30;;;;;;5031793;28;20170;-69
2023/06/01 11:14:30;;;;;;;7.85;6.10;;;23.20;94.70;;;;;;5014957;28;20202;-70
2023/06/01 11:17:36;;;;;;;7.63;6.28;;;23.40;95.00;;;;;;5027198;28;20179;-69
2023/06/01 11:20:10;;;;;;;9.32;7.00;;;23.50;91.30;;;;;;5000933;28;20277;-69
2023/06/01 11:22:37;;;;;;;8.40;6.30;;;23.70;94.60;;;;;;5015335;28;20314;-69
2023/06/01 11:25:08;;;;;;;9.52;6.97;;;23.80;94.60;;;;;;5015204;28;20171;-69
2023/06/01 11:27:34;;;;;;;8.88;6.78;;;23.90;94.00;;;;;;5013918;28;20262;-69
2023/06/01 11:29:59;;;;;;;8.07;6.05;;;24.00;93.80;;;;;;5015012;28;20282;-70
2023/06/01 11:32:29;;;;;;;9.23;7.10;;;24.10;93.70;;;;;;5015591;28;20174;-70
2023/06/01 11:34:55;;;;;;;8.93;6.55;;;24.20;92.80;;;;;;5013231;28;20241;-69
2023/06/01 11:37:25;;;;;;;7.97;6.70;;;24.30;92.50;;;;;;5014410;28;20175;-69
2023/06/01 11:39:50;;;;;;;9.20;6.20;;;24.40;92.30;;;;;;5015610;28;20175;-70
2023/06/01 11:42:21;;;;;;;9.23;6.78;;;24.50;91.70;;;;;;5014791;28;20202;-70
2023/06/01 11:44:58;;;;;;;8.65;6.38;;;24.50;91.10;;;;;;5011834;28;20194;-68
2023/06/01 11:47:28;;;;;;;7.65;6.82;;;24.60;89.40;;;;;;5011823;28;20201;-69
2023/06/01 11:49:53;;;;;;;8.45;7.03;;;24.60;88.30;;;;;;5000169;28;20234;-69
2023/06/01 11:52:20;;;;;;;9.10;7.47;;;24.60;89.20;;;;;;5008823;28;20269;-70
2023/06/01 11:54:51;;;;;;;8.30;6.18;;;24.70;88.30;;;;;;5020517;28;20267;-69
2023/06/01 11:57:18;;;;;;;8.77;6.07;;;24.80;88.10;;;;;;5014760;28;20183;-69
2023/06/01 11:59:49;;;;;;;8.10;6.03;;;24.90;89.30;;;;;;5013500;28;20172;-69
2023/06/01 12:02:27;;;;;;;6.93;5.90;;;25.10;88.90;;;;;;5015924;28;20202;-68
2023/06/01 12:05:08;;;;;;;7.82;6.70;;;25.30;86.90;;;;;;5015039;28;20244;-70
2023/06/01 12:07:48;;;;;;;7.22;5.97;;;25.50;84.30;;;;;;5009201;28;20202;-70
2023/06/01 12:10:17;;;;;;;7.70;6.28;;;25.60;84.70;;;;;;5014168;28;20209;-71
2023/06/01 12:12:43;;;;;;;8.95;7.05;;;25.70;85.70;;;;;;5001024;28;20313;-69
2023/06/01 12:15:11;;;;;;;8.45;5.80;;;25.80;84.90;;;;;;5014314;28;20255;-70
2023/06/01 12:17:49;;;;;;;8.93;6.60;;;25.80;84.40;;;;;;5014286;28;20203;-70
2023/06/01 12:20:35;;;;;;;9.95;7.03;;;25.90;83.60;;;;;;5014867;28;20521;-70
2023/06/01 12:23:20;;;;;;;10.20;7.38;;;26.00;80.80;;;;;;5031099;28;20213;-68
2023/06/01 12:25:52;;;;;;;7.47;6.68;;;26.00;83.40;;;;;;5018708;28;20170;-70
2023/06/01 12:28:18;;;;;;;11.85;8.93;;;26.10;83.10;;;;;;5017105;28;20186;-70
2023/06/01 12:30:44;;;;;;;11.70;8.38;;;26.20;82.00;;;;;;5018883;28;20198;-69
2023/06/01 12:33:33;;;;;;;10.95;8.90;;;26.20;80.30;;;;;;5018019;28;20225;-69
2023/06/01 12:35:59;;;;;;;9.63;7.47;;;26.20;79.20;;;;;;5016748;28;20303;-68
2023/06/01 12:38:26;;;;;;;11.48;8.43;;;26.30;82.20;;;;;;5018481;28;20182;-68
2023/06/01 12:41:12;;;;;;;14.73;10.27;;;26.50;82.30;;;;;;5018130;28;20185;-69
2023/06/01 12:43:44;;;;;;;12.55;9.30;;;26.60;78.50;;;;;;4999002;28;20209;-69
2023/06/01 12:46:18;;;;;;;12.55;10.13;;;26.70;80.70;;;;;;5003974;28;20174;-69
2023/06/01 12:48:45;;;;;;;12.65;10.52;;;26.80;78.70;;;;;;5014923;28;20234;-70
2023/06/01 12:51:11;;;;;;;10.50;8.93;;;26.90;79.70;;;;;;5013771;28;20174;-69
2023/06/01 12:53:39;;;;;;;11.35;9.43;;;27.00;78.50;;;;;;5018139;28;20206;-70
2023/06/01 12:56:06;;;;;;;10.20;8.05;;;27.00;77.90;;;;;;5017459;28;20229;-69